Time;durP1;ratioP1;P1;durP2;ratioP2;P2;SDS_P1;SDS_P2;PMS_P1;PMS_P2;Temp;Humidity;BMP_temperature;BMP_pressure;BME280_temperature;BME280_humidity;BME280_pressure;Samples;Min_cycle;Max_cycle;Signal;HPM_P1;HPM_P2
2023/12/21 00:00:43;;;;;;;3.10;0.93;;;;;;;;;;5114689;28;20438;-71
2023/12/21 00:03:09;;;;;;;0.50;0.50;;;;;;;;;;5114653;28;20899;-71
2023/12/21 00:05:35;;;;;;;0.80;0.80;;;;;;;;;;5114138;28;20510;-71
2023/12/21 00:08:01;;;;;;;2.93;0.70;;;;;;;;;;5114174;28;20411;-71
2023/12/21 00:10:27;;;;;;;1.27;0.40;;;;;;;;;;5114173;28;20471;-71
2023/12/21 00:12:53;;;;;;;0.50;0.50;;;;;;;;;;5114155;28;20412;-71
2023/12/21 00:15:19;;;;;;;0.63;0.60;;;;;;;;;;5114329;28;20460;-71
2023/12/21 00:17:45;;;;;;;0.40;0.40;;;;;;;;;;5114365;28;20902;-71
2023/12/21 00:20:11;;;;;;;0.77;0.70;;;;;;;;;;5114583;28;20880;-71
2023/12/21 00:22:37;;;;;;;1.13;0.60;;;;;;;;;;5114287;28;20422;-71
2023/12/21 00:25:03;;;;;;;2.50;0.87;;;;;;;;;;5114303;28;20416;-71
2023/12/21 00:27:29;;;;;;;0.93;0.93;;;;;;;;;;5113884;28;20415;-71
2023/12/21 00:29:55;;;;;;;3.07;0.87;;;;;;;;;;5113785;28;20459;-71
2023/12/21 00:32:21;;;;;;;0.67;0.67;;;;;;;;;;5113711;28;20420;-71
2023/12/21 00:34:49;;;;;;;0.70;0.70;;;;;;;;;;5114700;28;20499;-71
2023/12/21 00:37:15;;;;;;;4.00;0.70;;;;;;;;;;5113514;28;20420;-71
2023/12/21 00:39:41;;;;;;;0.93;0.40;;;;;;;;;;5113772;28;20439;-71
2023/12/21 00:42:07;;;;;;;0.40;0.40;;;;;;;;;;5113914;28;20426;-71
2023/12/21 00:44:33;;;;;;;0.83;0.70;;;;;;;;;;5113892;28;20411;-71
2023/12/21 00:46:59;;;;;;;0.53;0.53;;;;;;;;;;5113512;28;20416;-71
2023/12/21 00:49:25;;;;;;;3.27;0.80;;;;;;;;;;5113599;28;20763;-71
2023/12/21 00:51:51;;;;;;;0.57;0.57;;;;;;;;;;5113713;28;20463;-71
2023/12/21 00:54:17;;;;;;;0.50;0.50;;;;;;;;;;5112308;28;20479;-71
2023/12/21 00:56:43;;;;;;;1.40;0.60;;;;;;;;;;5112213;28;20458;-71
2023/12/21 00:59:09;;;;;;;0.40;0.40;;;;;;;;;;5113756;28;20419;-71
2023/12/21 01:01:35;;;;;;;0.40;0.40;;;;;;;;;;5113336;28;20557;-71
2023/12/21 01:04:01;;;;;;;1.27;0.60;;;;;;;;;;5113335;28;20471;-71
2023/12/21 01:06:27;;;;;;;0.40;0.40;;;;;;;;;;5113729;28;20423;-71
2023/12/21 01:08:53;;;;;;;1.60;0.90;;;;;;;;;;5114020;28;20778;-71
2023/12/21 01:11:19;;;;;;;0.50;0.50;;;;;;;;;;5113198;28;20550;-71
2023/12/21 01:13:45;;;;;;;0.57;0.57;;;;;;;;;;5113601;28;20415;-71
2023/12/21 01:16:13;;;;;;;1.27;0.60;;;;;;;;;;5113541;28;20472;-71
2023/12/21 01:18:39;;;;;;;3.30;3.00;;;;;;;;;;5113330;28;20895;-71
2023/12/21 01:21:05;;;;;;;1.00;0.70;;;;;;;;;;5113362;28;20427;-71
2023/12/21 01:23:31;;;;;;;4.43;0.80;;;;;;;;;;5113126;28;20408;-71
2023/12/21 01:25:57;;;;;;;0.80;0.50;;;;;;;;;;5113817;28;20880;-71
2023/12/21 01:28:23;;;;;;;0.60;0.60;;;;;;;;;;5113498;28;20403;-71
2023/12/21 01:30:49;;;;;;;0.60;0.60;;;;;;;;;;5112972;28;20467;-71
2023/12/21 01:33:15;;;;;;;0.40;0.40;;;;;;;;;;5113083;28;20404;-71
2023/12/21 01:35:41;;;;;;;0.50;0.30;;;;;;;;;;5113176;28;20416;-71
2023/12/21 01:38:07;;;;;;;0.50;0.33;;;;;;;;;;5113112;28;20415;-71
2023/12/21 01:40:32;;;;;;;1.13;0.50;;;;;;;;;;5113095;28;20422;-71
2023/12/21 01:42:58;;;;;;;0.37;0.37;;;;;;;;;;5112964;28;20472;-71
2023/12/21 01:45:24;;;;;;;0.30;0.30;;;;;;;;;;5113073;28;20472;-71
2023/12/21 01:47:52;;;;;;;1.07;0.40;;;;;;;;;;5112874;28;20416;-71
2023/12/21 01:50:18;;;;;;;0.87;0.40;;;;;;;;;;5115608;28;20494;-71
2023/12/21 01:52:44;;;;;;;0.40;0.40;;;;;;;;;;5116842;28;20415;-71
2023/12/21 01:55:12;;;;;;;0.33;0.33;;;;;;;;;;5116852;28;20431;-71
2023/12/21 01:57:38;;;;;;;0.40;0.40;;;;;;;;;;5117085;28;20472;-71
2023/12/21 02:00:05;;;;;;;0.50;0.50;;;;;;;;;;5116947;28;20432;-71
2023/12/21 02:02:31;;;;;;;0.40;0.40;;;;;;;;;;5117310;28;20447;-71
2023/12/21 02:04:57;;;;;;;0.40;0.40;;;;;;;;;;5116480;28;20549;-71
2023/12/21 02:07:23;;;;;;;0.80;0.30;;;;;;;;;;5116915;28;20415;-71
2023/12/21 02:09:49;;;;;;;0.30;0.30;;;;;;;;;;5116512;28;20404;-71
2023/12/21 02:12:15;;;;;;;0.30;0.30;;;;;;;;;;5116473;28;20423;-71
2023/12/21 02:14:41;;;;;;;0.37;0.30;;;;;;;;;;5115185;28;20488;-71
2023/12/21 02:17:10;;;;;;;0.40;0.40;;;;;;;;;;5116619;28;20425;-71
2023/12/21 02:19:37;;;;;;;0.70;0.70;;;;;;;;;;5116764;28;20407;-71
2023/12/21 02:22:04;;;;;;;2.13;0.40;;;;;;;;;;5116214;28;20453;-71
2023/12/21 02:24:30;;;;;;;0.30;0.30;;;;;;;;;;5116047;28;20415;-71
2023/12/21 02:26:56;;;;;;;0.40;0.40;;;;;;;;;;5116456;28;20416;-71
2023/12/21 02:29:22;;;;;;;0.40;0.40;;;;;;;;;;5116491;28;20419;-71
2023/12/21 02:31:51;;;;;;;0.30;0.30;;;;;;;;;;5116016;28;20848;-71
2023/12/21 02:34:17;;;;;;;0.97;0.50;;;;;;;;;;5116285;28;20420;-71
2023/12/21 02:36:43;;;;;;;0.67;0.50;;;;;;;;;;5116346;28;20443;-71
2023/12/21 02:39:09;;;;;;;0.50;0.33;;;;;;;;;;5116315;28;20419;-71
2023/12/21 02:41:35;;;;;;;0.30;0.30;;;;;;;;;;5115963;28;20407;-71
2023/12/21 02:44:01;;;;;;;0.30;0.30;;;;;;;;;;5115869;28;20814;-71
2023/12/21 02:46:27;;;;;;;1.13;0.30;;;;;;;;;;5115926;28;20477;-71
2023/12/21 02:48:53;;;;;;;0.30;0.30;;;;;;;;;;5115751;28;20411;-71
2023/12/21 02:51:19;;;;;;;0.30;0.30;;;;;;;;;;5115720;28;20520;-71
2023/12/21 02:53:45;;;;;;;0.33;0.30;;;;;;;;;;5115631;28;20499;-71
2023/12/21 02:56:11;;;;;;;1.57;0.30;;;;;;;;;;5115901;28;20415;-71
2023/12/21 02:58:37;;;;;;;4.00;0.40;;;;;;;;;;5116221;28;20901;-71
2023/12/21 03:01:04;;;;;;;0.30;0.30;;;;;;;;;;5115611;28;20416;-71
2023/12/21 03:03:30;;;;;;;0.73;0.37;;;;;;;;;;5115895;28;20408;-71
2023/12/21 03:05:56;;;;;;;0.30;0.30;;;;;;;;;;5115446;28;20822;-71
2023/12/21 03:08:22;;;;;;;0.40;0.40;;;;;;;;;;5115557;28;20792;-71
2023/12/21 03:10:48;;;;;;;0.40;0.40;;;;;;;;;;5115776;28;20467;-71
2023/12/21 03:13:14;;;;;;;0.30;0.30;;;;;;;;;;5115483;28;20503;-71
2023/12/21 03:15:40;;;;;;;0.30;0.30;;;;;;;;;;5115420;28;20898;-71
2023/12/21 03:18:06;;;;;;;0.30;0.30;;;;;;;;;;5115500;28;20416;-71
2023/12/21 03:20:32;;;;;;;3.97;0.50;;;;;;;;;;5115235;28;20424;-71
2023/12/21 03:22:58;;;;;;;0.40;0.40;;;;;;;;;;5115160;28;20502;-71
2023/12/21 03:25:24;;;;;;;0.30;0.30;;;;;;;;;;5113782;28;20423;-71
2023/12/21 03:27:50;;;;;;;0.30;0.30;;;;;;;;;;5113689;28;20412;-71
2023/12/21 03:30:15;;;;;;;0.70;0.30;;;;;;;;;;5114861;28;20536;-71
2023/12/21 03:32:42;;;;;;;1.10;0.50;;;;;;;;;;5114946;28;20515;-71
2023/12/21 03:35:09;;;;;;;0.30;0.30;;;;;;;;;;5115019;28;20408;-71
2023/12/21 03:37:36;;;;;;;1.53;0.30;;;;;;;;;;5114983;28;20412;-71
2023/12/21 03:40:01;;;;;;;0.30;0.30;;;;;;;;;;5114901;28;20419;-71
2023/12/21 03:42:27;;;;;;;0.50;0.37;;;;;;;;;;5114580;28;20938;-71
2023/12/21 03:44:53;;;;;;;0.30;0.30;;;;;;;;;;5114734;28;20420;-71
2023/12/21 03:47:19;;;;;;;0.30;0.30;;;;;;;;;;5114626;28;20443;-71
2023/12/21 03:49:45;;;;;;;0.20;0.20;;;;;;;;;;5113269;28;20420;-71
2023/12/21 03:52:11;;;;;;;0.30;0.30;;;;;;;;;;5114549;28;20419;-71
2023/12/21 03:54:37;;;;;;;0.30;0.30;;;;;;;;;;5114592;28;20752;-71
2023/12/21 03:57:03;;;;;;;0.50;0.50;;;;;;;;;;5114440;28;20590;-71
2023/12/21 03:59:29;;;;;;;0.30;0.30;;;;;;;;;;5114525;28;20415;-71
2023/12/21 04:01:57;;;;;;;0.30;0.30;;;;;;;;;;5114534;28;20411;-71
2023/12/21 04:04:23;;;;;;;0.43;0.30;;;;;;;;;;5114163;28;20467;-71
2023/12/21 04:06:49;;;;;;;0.30;0.30;;;;;;;;;;5114295;28;20424;-71
2023/12/21 04:09:15;;;;;;;0.37;0.37;;;;;;;;;;5114274;28;20519;-71
2023/12/21 04:11:41;;;;;;;0.30;0.30;;;;;;;;;;5113894;28;20463;-71
2023/12/21 04:14:07;;;;;;;0.30;0.30;;;;;;;;;;5114309;28;20764;-71
2023/12/21 04:16:33;;;;;;;0.30;0.30;;;;;;;;;;5114141;28;20420;-71
2023/12/21 04:18:59;;;;;;;0.30;0.30;;;;;;;;;;5114579;28;20408;-71
2023/12/21 04:21:25;;;;;;;0.30;0.30;;;;;;;;;;5114610;28;20419;-71
2023/12/21 04:23:51;;;;;;;2.30;0.40;;;;;;;;;;5114034;28;20411;-71
2023/12/21 04:26:20;;;;;;;0.40;0.30;;;;;;;;;;5113959;28;20419;-71
2023/12/21 04:28:47;;;;;;;0.20;0.20;;;;;;;;;;5114226;28;20403;-71
2023/12/21 04:31:17;;;;;;;0.30;0.30;;;;;;;;;;5114069;28;20470;-71
2023/12/21 04:33:45;;;;;;;0.30;0.30;;;;;;;;;;5114143;28;20396;-71
2023/12/21 04:36:11;;;;;;;0.30;0.30;;;;;;;;;;5114902;28;20435;-71
2023/12/21 04:38:38;;;;;;;0.40;0.30;;;;;;;;;;5113969;28;20404;-71
2023/12/21 04:41:04;;;;;;;0.30;0.30;;;;;;;;;;5113678;28;20864;-71
2023/12/21 04:43:30;;;;;;;0.40;0.40;;;;;;;;;;5113641;28;20435;-71
2023/12/21 04:45:55;;;;;;;0.30;0.30;;;;;;;;;;5129844;27;20510;-71
2023/12/21 04:48:21;;;;;;;0.30;0.30;;;;;;;;;;5113538;28;20441;-71
2023/12/21 04:50:47;;;;;;;0.30;0.30;;;;;;;;;;5113773;28;20471;-71
2023/12/21 04:53:13;;;;;;;0.30;0.30;;;;;;;;;;5113748;28;20420;-73
2023/12/21 04:55:39;;;;;;;0.43;0.30;;;;;;;;;;5113791;28;20438;-71
2023/12/21 04:58:05;;;;;;;0.20;0.20;;;;;;;;;;5112222;28;20488;-71
2023/12/21 05:00:31;;;;;;;0.30;0.30;;;;;;;;;;5113407;28;20415;-71
2023/12/21 05:02:57;;;;;;;0.23;0.23;;;;;;;;;;5113704;28;20498;-71
2023/12/21 05:05:23;;;;;;;0.20;0.20;;;;;;;;;;5113296;28;20467;-71
2023/12/21 05:07:49;;;;;;;0.30;0.30;;;;;;;;;;5112150;28;20451;-71
2023/12/21 05:10:15;;;;;;;0.30;0.30;;;;;;;;;;5113550;28;20471;-71
2023/12/21 05:12:41;;;;;;;0.40;0.30;;;;;;;;;;5113883;28;20412;-71
2023/12/21 05:15:07;;;;;;;0.20;0.20;;;;;;;;;;5113340;28;20450;-71
2023/12/21 05:17:34;;;;;;;0.20;0.20;;;;;;;;;;5113881;28;20415;-71
2023/12/21 05:20:00;;;;;;;0.30;0.30;;;;;;;;;;5113282;28;20415;-71
2023/12/21 05:22:26;;;;;;;0.30;0.30;;;;;;;;;;5113584;28;20491;-71
2023/12/21 05:24:52;;;;;;;0.30;0.30;;;;;;;;;;5114494;28;20513;-71
2023/12/21 05:27:18;;;;;;;0.30;0.30;;;;;;;;;;5117412;28;20420;-71
2023/12/21 05:29:44;;;;;;;0.20;0.20;;;;;;;;;;5117515;28;20428;-71
2023/12/21 05:32:10;;;;;;;0.20;0.20;;;;;;;;;;5117494;28;20601;-71
2023/12/21 05:34:36;;;;;;;0.20;0.20;;;;;;;;;;5117135;28;20430;-71
2023/12/21 05:37:02;;;;;;;0.20;0.20;;;;;;;;;;5117213;28;20479;-71
2023/12/21 05:39:28;;;;;;;0.20;0.20;;;;;;;;;;5117458;28;20481;-71
2023/12/21 05:41:54;;;;;;;0.20;0.20;;;;;;;;;;5117096;28;20502;-71
2023/12/21 05:44:20;;;;;;;0.30;0.30;;;;;;;;;;5115781;28;20755;-71
2023/12/21 05:46:46;;;;;;;0.20;0.20;;;;;;;;;;5115753;28;20457;-71
2023/12/21 05:49:12;;;;;;;0.30;0.30;;;;;;;;;;5116993;28;20772;-71
2023/12/21 05:51:38;;;;;;;0.20;0.20;;;;;;;;;;5116997;28;20478;-71
2023/12/21 05:54:04;;;;;;;0.20;0.20;;;;;;;;;;5117274;28;20419;-71
2023/12/21 05:56:30;;;;;;;0.30;0.30;;;;;;;;;;5115476;28;20805;-71
2023/12/21 05:58:56;;;;;;;0.30;0.30;;;;;;;;;;5116707;28;20414;-71
2023/12/21 06:01:23;;;;;;;0.30;0.30;;;;;;;;;;5116789;28;20439;-71
2023/12/21 06:03:49;;;;;;;0.30;0.30;;;;;;;;;;5116570;28;20462;-71
2023/12/21 06:06:16;;;;;;;0.30;0.30;;;;;;;;;;5116904;28;20424;-71
2023/12/21 06:08:42;;;;;;;0.40;0.40;;;;;;;;;;5116473;28;20411;-71
2023/12/21 06:11:08;;;;;;;0.40;0.40;;;;;;;;;;5116359;28;20463;-71
2023/12/21 06:13:34;;;;;;;0.63;0.30;;;;;;;;;;5116411;28;20836;-71
2023/12/21 06:16:00;;;;;;;0.30;0.30;;;;;;;;;;5116302;28;20808;-72
2023/12/21 06:18:26;;;;;;;0.30;0.30;;;;;;;;;;5116734;28;20408;-72
2023/12/21 06:20:52;;;;;;;0.30;0.30;;;;;;;;;;5116281;28;20509;-71
2023/12/21 06:23:18;;;;;;;0.50;0.50;;;;;;;;;;5116307;28;20445;-71
2023/12/21 06:25:44;;;;;;;0.20;0.20;;;;;;;;;;5116516;28;20412;-72
2023/12/21 06:28:10;;;;;;;0.20;0.20;;;;;;;;;;5116218;28;20416;-72
2023/12/21 06:30:36;;;;;;;0.20;0.20;;;;;;;;;;5116072;28;20467;-71
2023/12/21 06:33:02;;;;;;;0.87;0.40;;;;;;;;;;5116080;28;20763;-72
2023/12/21 06:35:28;;;;;;;0.40;0.40;;;;;;;;;;5115890;28;20427;-71
2023/12/21 06:37:54;;;;;;;0.30;0.30;;;;;;;;;;5116074;28;20424;-71
2023/12/21 06:40:20;;;;;;;0.30;0.30;;;;;;;;;;5116268;28;20416;-71
2023/12/21 06:42:46;;;;;;;0.70;0.37;;;;;;;;;;5116188;28;20403;-71
2023/12/21 06:45:12;;;;;;;0.43;0.43;;;;;;;;;;5116132;28;20430;-71
2023/12/21 06:47:38;;;;;;;0.60;0.60;;;;;;;;;;5115784;28;20461;-71
2023/12/21 06:50:05;;;;;;;0.60;0.60;;;;;;;;;;5115823;28;20412;-71
2023/12/21 06:52:31;;;;;;;0.53;0.53;;;;;;;;;;5115759;28;20427;-71
2023/12/21 06:54:57;;;;;;;1.13;1.13;;;;;;;;;;5115763;28;20407;-72
2023/12/21 06:57:23;;;;;;;0.50;0.50;;;;;;;;;;5115543;28;20956;-70
2023/12/21 06:59:49;;;;;;;0.50;0.50;;;;;;;;;;5115809;28;20415;-71
2023/12/21 07:02:15;;;;;;;0.40;0.40;;;;;;;;;;5115466;28;20847;-71
2023/12/21 07:04:41;;;;;;;0.33;0.33;;;;;;;;;;5115341;28;20823;-71
2023/12/21 07:07:07;;;;;;;0.40;0.40;;;;;;;;;;5115792;28;20907;-71
2023/12/21 07:09:33;;;;;;;0.30;0.30;;;;;;;;;;5115477;28;20778;-72
2023/12/21 07:12:00;;;;;;;0.83;0.30;;;;;;;;;;5115200;28;20880;-71
2023/12/21 07:14:26;;;;;;;0.33;0.33;;;;;;;;;;5115641;28;20407;-71
2023/12/21 07:16:52;;;;;;;0.30;0.30;;;;;;;;;;5115156;28;20907;-72
2023/12/21 07:19:18;;;;;;;0.27;0.27;;;;;;;;;;5115479;28;20410;-72
2023/12/21 07:21:44;;;;;;;0.20;0.20;;;;;;;;;;5115122;28;20738;-71
2023/12/21 07:24:10;;;;;;;0.20;0.20;;;;;;;;;;5115031;28;20490;-70
2023/12/21 07:26:36;;;;;;;0.30;0.30;;;;;;;;;;5114964;28;20447;-70
2023/12/21 07:29:02;;;;;;;0.30;0.30;;;;;;;;;;5114955;28;20404;-72
2023/12/21 07:31:28;;;;;;;0.30;0.30;;;;;;;;;;5114883;28;20835;-71
2023/12/21 07:33:54;;;;;;;0.20;0.20;;;;;;;;;;5115230;28;20423;-71
2023/12/21 07:36:20;;;;;;;0.77;0.37;;;;;;;;;;5114862;28;20416;-71
2023/12/21 07:38:46;;;;;;;0.27;0.27;;;;;;;;;;5115135;28;20411;-71
2023/12/21 07:41:13;;;;;;;0.30;0.30;;;;;;;;;;5115475;28;20468;-71
2023/12/21 07:43:39;;;;;;;0.30;0.30;;;;;;;;;;5115058;27;20502;-71
2023/12/21 07:46:05;;;;;;;0.40;0.40;;;;;;;;;;5114772;28;20423;-71
2023/12/21 07:48:32;;;;;;;0.37;0.30;;;;;;;;;;5113860;28;20411;-71
2023/12/21 07:50:58;;;;;;;0.30;0.30;;;;;;;;;;5114483;28;20474;-71
2023/12/21 07:53:24;;;;;;;2.07;0.33;;;;;;;;;;5114591;28;20415;-71
2023/12/21 07:55:50;;;;;;;0.30;0.30;;;;;;;;;;5114587;28;20492;-71
2023/12/21 07:58:16;;;;;;;0.30;0.30;;;;;;;;;;5115053;28;20502;-71
2023/12/21 08:00:42;;;;;;;2.97;0.40;;;;;;;;;;5114400;28;20469;-71
2023/12/21 08:03:08;;;;;;;0.30;0.30;;;;;;;;;;5114212;28;20416;-73
2023/12/21 08:05:34;;;;;;;0.30;0.30;;;;;;;;;;5114044;28;20460;-71
2023/12/21 08:08:00;;;;;;;0.30;0.30;;;;;;;;;;5114010;28;20423;-71
2023/12/21 08:10:26;;;;;;;0.20;0.20;;;;;;;;;;5113995;28;20455;-71
2023/12/21 08:12:52;;;;;;;0.30;0.30;;;;;;;;;;5113957;28;20427;-71
2023/12/21 08:15:18;;;;;;;0.30;0.30;;;;;;;;;;5113745;28;20419;-71
2023/12/21 08:17:44;;;;;;;0.30;0.30;;;;;;;;;;5114442;28;20447;-72
2023/12/21 08:20:12;;;;;;;0.43;0.43;;;;;;;;;;5114136;28;20533;-71
2023/12/21 08:22:39;;;;;;;0.40;0.40;;;;;;;;;;5114176;28;20415;-71
2023/12/21 08:25:06;;;;;;;0.77;0.40;;;;;;;;;;5113813;28;20892;-72
2023/12/21 08:27:32;;;;;;;1.70;0.97;;;;;;;;;;5114316;28;20758;-71
2023/12/21 08:29:59;;;;;;;0.30;0.30;;;;;;;;;;5113566;28;20920;-71
2023/12/21 08:32:27;;;;;;;0.60;0.60;;;;;;;;;;5113757;28;20439;-71
2023/12/21 08:34:53;;;;;;;0.40;0.40;;;;;;;;;;5113755;28;20406;-71
2023/12/21 08:37:19;;;;;;;0.30;0.30;;;;;;;;;;5113845;28;20412;-71
2023/12/21 08:39:45;;;;;;;0.30;0.30;;;;;;;;;;5113543;28;20412;-71
2023/12/21 08:42:11;;;;;;;1.73;0.30;;;;;;;;;;5113501;28;20423;-71
2023/12/21 08:44:37;;;;;;;0.30;0.30;;;;;;;;;;5114004;28;20476;-72
2023/12/21 08:47:04;;;;;;;0.40;0.40;;;;;;;;;;5113597;28;20883;-71
2023/12/21 08:49:30;;;;;;;0.30;0.30;;;;;;;;;;5113764;28;20465;-71
2023/12/21 08:51:56;;;;;;;0.30;0.30;;;;;;;;;;5113626;28;20479;-72
2023/12/21 08:54:22;;;;;;;0.63;0.33;;;;;;;;;;5113445;28;20415;-71
2023/12/21 08:56:50;;;;;;;1.50;0.50;;;;;;;;;;5113555;28;20423;-71
2023/12/21 08:59:16;;;;;;;0.40;0.40;;;;;;;;;;5113121;28;20826;-71
2023/12/21 09:01:42;;;;;;;0.30;0.30;;;;;;;;;;5113811;28;20954;-71
2023/12/21 09:04:08;;;;;;;1.50;0.30;;;;;;;;;;5112800;28;20963;-71
2023/12/21 09:06:34;;;;;;;0.30;0.30;;;;;;;;;;5113512;28;20419;-73
2023/12/21 09:09:00;;;;;;;0.30;0.30;;;;;;;;;;5113308;28;20419;-71
2023/12/21 09:11:27;;;;;;;0.43;0.43;;;;;;;;;;5113367;28;20615;-72
2023/12/21 09:13:55;;;;;;;1.80;0.60;;;;;;;;;;5113362;28;20450;-72
2023/12/21 09:16:21;;;;;;;0.40;0.40;;;;;;;;;;5114302;28;20750;-72
2023/12/21 09:18:47;;;;;;;0.30;0.30;;;;;;;;;;5113279;28;20416;-72
2023/12/21 09:21:13;;;;;;;0.30;0.30;;;;;;;;;;5112991;28;20420;-71
2023/12/21 09:23:40;;;;;;;2.27;0.40;;;;;;;;;;5113324;28;20421;-72
2023/12/21 09:26:08;;;;;;;0.30;0.30;;;;;;;;;;5113160;28;20914;-72
2023/12/21 09:28:34;;;;;;;0.73;0.40;;;;;;;;;;5113445;28;20408;-72
2023/12/21 09:31:00;;;;;;;0.47;0.47;;;;;;;;;;5113478;28;20513;-71
2023/12/21 09:33:26;;;;;;;0.30;0.30;;;;;;;;;;5113010;28;20404;-71
2023/12/21 09:35:55;;;;;;;0.50;0.50;;;;;;;;;;5113314;28;20422;-72
2023/12/21 09:38:21;;;;;;;0.40;0.40;;;;;;;;;;5113246;28;20415;-71
2023/12/21 09:40:47;;;;;;;0.77;0.77;;;;;;;;;;5112910;28;20469;-72
2023/12/21 09:43:16;;;;;;;0.40;0.40;;;;;;;;;;5113065;28;20444;-74
2023/12/21 09:45:43;;;;;;;0.40;0.40;;;;;;;;;;5112842;28;20932;-72
2023/12/21 09:48:10;;;;;;;0.30;0.30;;;;;;;;;;5112827;28;20412;-72
2023/12/21 09:50:36;;;;;;;0.30;0.30;;;;;;;;;;5113168;28;20923;-72
2023/12/21 09:53:02;;;;;;;0.30;0.30;;;;;;;;;;5112960;28;20437;-72
2023/12/21 09:55:30;;;;;;;0.47;0.30;;;;;;;;;;5112771;28;20411;-72
2023/12/21 09:57:57;;;;;;;0.30;0.30;;;;;;;;;;5113035;28;20482;-72
2023/12/21 10:00:24;;;;;;;0.43;0.30;;;;;;;;;;5113272;28;20415;-71
2023/12/21 10:02:50;;;;;;;0.30;0.30;;;;;;;;;;5112979;28;20448;-71
2023/12/21 10:05:16;;;;;;;0.40;0.40;;;;;;;;;;5112446;28;20910;-71
2023/12/21 10:07:42;;;;;;;0.30;0.30;;;;;;;;;;5112251;28;20483;-71
2023/12/21 10:10:08;;;;;;;0.30;0.30;;;;;;;;;;5112487;28;20795;-72
2023/12/21 10:12:34;;;;;;;0.30;0.30;;;;;;;;;;5116376;28;20469;-72
2023/12/21 10:15:03;;;;;;;3.03;0.40;;;;;;;;;;5116316;28;20411;-71
2023/12/21 10:17:31;;;;;;;3.20;0.30;;;;;;;;;;5116320;28;20914;-72
2023/12/21 10:19:57;;;;;;;0.30;0.30;;;;;;;;;;5116571;28;20423;-71
2023/12/21 10:22:23;;;;;;;0.20;0.20;;;;;;;;;;5116394;28;20575;-71
2023/12/21 10:24:51;;;;;;;0.50;0.30;;;;;;;;;;5116388;28;20420;-72
2023/12/21 10:27:18;;;;;;;0.30;0.30;;;;;;;;;;5116118;28;20849;-72
2023/12/21 10:29:52;;;;;;;0.33;0.33;;;;;;;;;;5116289;27;20423;-73
2023/12/21 10:32:18;;;;;;;0.30;0.30;;;;;;;;;;5116098;28;20471;-71
2023/12/21 10:34:43;;;;;;;0.30;0.30;;;;;;;;;;5115806;28;20967;-72
2023/12/21 10:37:09;;;;;;;0.30;0.30;;;;;;;;;;5116008;28;20464;-71
2023/12/21 10:39:35;;;;;;;0.30;0.30;;;;;;;;;;5116182;28;20412;-72
2023/12/21 10:42:03;;;;;;;0.20;0.20;;;;;;;;;;5115700;28;20445;-72
2023/12/21 10:44:29;;;;;;;0.30;0.30;;;;;;;;;;5115965;28;20427;-71
2023/12/21 10:46:55;;;;;;;0.40;0.40;;;;;;;;;;5115970;28;20443;-71
2023/12/21 10:49:21;;;;;;;0.33;0.33;;;;;;;;;;5115726;28;20399;-72
2023/12/21 10:51:48;;;;;;;0.30;0.30;;;;;;;;;;5115877;28;20468;-71
2023/12/21 10:54:18;;;;;;;0.70;0.30;;;;;;;;;;5115852;28;20436;-71
2023/12/21 10:56:46;;;;;;;1.10;0.40;;;;;;;;;;5114859;28;20407;-72
2023/12/21 10:59:13;;;;;;;0.30;0.30;;;;;;;;;;5115478;28;20235;-72
2023/12/21 11:01:42;;;;;;;0.20;0.20;;;;;;;;;;5115700;28;20816;-71
2023/12/21 11:04:10;;;;;;;0.30;0.30;;;;;;;;;;5115160;28;20961;-71
2023/12/21 11:06:39;;;;;;;0.63;0.63;;;;;;;;;;5115700;28;20941;-71
2023/12/21 11:09:06;;;;;;;0.43;0.43;;;;;;;;;;5115573;28;20952;-71
2023/12/21 11:11:32;;;;;;;4.30;1.07;;;;;;;;;;5115204;28;20475;-71
2023/12/21 11:13:59;;;;;;;1.63;1.07;;;;;;;;;;5115333;28;20416;-72
2023/12/21 11:16:32;;;;;;;14.03;7.90;;;;;;;;;;5115279;28;20420;-72
2023/12/21 11:19:00;;;;;;;3.07;2.77;;;;;;;;;;5115775;28;20424;-72
2023/12/21 11:21:26;;;;;;;3.70;0.63;;;;;;;;;;5114975;28;20527;-73
2023/12/21 11:23:53;;;;;;;0.63;0.63;;;;;;;;;;5115189;28;20408;-71
2023/12/21 11:26:25;;;;;;;3.60;1.37;;;;;;;;;;5115291;28;20423;-72
2023/12/21 11:28:51;;;;;;;2.40;2.27;;;;;;;;;;5114921;28;20407;-71
2023/12/21 11:31:18;;;;;;;2.40;2.20;;;;;;;;;;5115292;28;20471;-71
2023/12/21 11:33:45;;;;;;;0.50;0.50;;;;;;;;;;5115302;28;20404;-71
2023/12/21 11:36:22;;;;;;;0.40;0.40;;;;;;;;;;5115086;28;20415;-71
2023/12/21 11:38:48;;;;;;;0.40;0.40;;;;;;;;;;5114550;28;20541;-71
2023/12/21 11:41:15;;;;;;;0.30;0.30;;;;;;;;;;5114952;28;20415;-71
2023/12/21 11:43:41;;;;;;;0.70;0.70;;;;;;;;;;5114695;28;20403;-71
2023/12/21 11:46:10;;;;;;;0.40;0.40;;;;;;;;;;5115294;28;20433;-72
2023/12/21 11:48:38;;;;;;;0.30;0.30;;;;;;;;;;5114728;28;20412;-71
2023/12/21 11:51:04;;;;;;;0.30;0.30;;;;;;;;;;5114807;28;20579;-72
2023/12/21 11:53:31;;;;;;;0.90;0.90;;;;;;;;;;5114426;28;20451;-72
2023/12/21 11:55:57;;;;;;;1.07;1.07;;;;;;;;;;5114899;28;20408;-71
2023/12/21 11:58:23;;;;;;;4.20;4.10;;;;;;;;;;5114492;28;20414;-72
2023/12/21 12:00:56;;;;;;;1.20;1.20;;;;;;;;;;5114377;28;20402;-72
2023/12/21 12:03:23;;;;;;;0.50;0.50;;;;;;;;;;5114809;28;20416;-71
2023/12/21 12:05:53;;;;;;;0.87;0.63;;;;;;;;;;5114390;28;20397;-72
2023/12/21 12:08:25;;;;;;;1.13;1.00;;;;;;;;;;5114222;28;20411;-72
2023/12/21 12:10:51;;;;;;;10.40;8.83;;;;;;;;;;5114019;28;20451;-72
2023/12/21 12:13:21;;;;;;;5.60;5.20;;;;;;;;;;5113890;28;20412;-72
2023/12/21 12:15:48;;;;;;;3.47;3.27;;;;;;;;;;5114226;28;20395;-72
2023/12/21 12:18:17;;;;;;;0.60;0.60;;;;;;;;;;5114182;28;20498;-72
2023/12/21 12:20:50;;;;;;;1.30;1.30;;;;;;;;;;5113848;28;20908;-71
2023/12/21 12:23:16;;;;;;;3.10;2.90;;;;;;;;;;5114167;28;20442;-71
2023/12/21 12:25:42;;;;;;;5.33;4.80;;;;;;;;;;5114125;28;20468;-71
2023/12/21 12:28:09;;;;;;;1.53;1.43;;;;;;;;;;5113981;28;20465;-71
2023/12/21 12:30:37;;;;;;;3.63;3.37;;;;;;;;;;5114036;28;20510;-72
2023/12/21 12:33:04;;;;;;;2.63;2.53;;;;;;;;;;5113173;28;20420;-71
2023/12/21 12:35:34;;;;;;;5.50;5.10;;;;;;;;;;5113443;28;20514;-71
2023/12/21 12:38:00;;;;;;;1.20;1.20;;;;;;;;;;5113685;28;20415;-71
2023/12/21 12:40:27;;;;;;;5.70;5.20;;;;;;;;;;5113370;28;20411;-72
2023/12/21 12:42:53;;;;;;;4.50;4.10;;;;;;;;;;5113477;28;20422;-72
2023/12/21 12:45:19;;;;;;;2.27;2.27;;;;;;;;;;5113614;28;20415;-72
2023/12/21 12:47:45;;;;;;;4.83;4.50;;;;;;;;;;5113737;28;20420;-71
2023/12/21 12:50:12;;;;;;;0.70;0.70;;;;;;;;;;5113653;28;20403;-70
2023/12/21 12:52:45;;;;;;;0.80;0.80;;;;;;;;;;5113271;28;20423;-71
2023/12/21 12:55:12;;;;;;;0.70;0.70;;;;;;;;;;5113702;28;20400;-71
2023/12/21 12:57:38;;;;;;;1.10;1.10;;;;;;;;;;5113658;28;20472;-72
2023/12/21 13:00:04;;;;;;;6.93;6.30;;;;;;;;;;5113460;28;20416;-72
2023/12/21 13:02:33;;;;;;;1.07;1.07;;;;;;;;;;5113132;28;20420;-72
2023/12/21 13:05:00;;;;;;;3.67;3.53;;;;;;;;;;5113220;28;20492;-71
2023/12/21 13:07:26;;;;;;;5.77;5.23;;;;;;;;;;5113502;28;20415;-72
2023/12/21 13:09:52;;;;;;;2.70;2.47;;;;;;;;;;5113794;28;20897;-72
2023/12/21 13:12:18;;;;;;;6.77;6.10;;;;;;;;;;5112858;28;20996;-72
2023/12/21 13:14:44;;;;;;;1.80;1.80;;;;;;;;;;5113278;28;20952;-72
2023/12/21 13:17:12;;;;;;;1.73;1.63;;;;;;;;;;5113216;28;20423;-72
2023/12/21 13:19:38;;;;;;;8.90;7.43;;;;;;;;;;5113479;28;20476;-72
2023/12/21 13:22:05;;;;;;;2.90;2.80;;;;;;;;;;5113320;28;20465;-72
2023/12/21 13:24:31;;;;;;;7.50;6.80;;;;;;;;;;5114183;28;20420;-72
2023/12/21 13:26:57;;;;;;;1.93;1.83;;;;;;;;;;5113150;28;20521;-72
2023/12/21 13:29:23;;;;;;;2.70;2.60;;;;;;;;;;5113299;28;20416;-73
2023/12/21 13:31:49;;;;;;;1.23;1.23;;;;;;;;;;5113160;28;20478;-71
2023/12/21 13:34:15;;;;;;;3.33;3.13;;;;;;;;;;5113277;28;20411;-71
2023/12/21 13:36:46;;;;;;;1.57;1.50;;;;;;;;;;5113310;28;20483;-72
2023/12/21 13:39:12;;;;;;;1.63;1.63;;;;;;;;;;5112954;28;20573;-71
2023/12/21 13:41:38;;;;;;;1.53;1.53;;;;;;;;;;5113007;28;20411;-72
2023/12/21 13:44:04;;;;;;;0.73;0.73;;;;;;;;;;5112903;28;20536;-70
2023/12/21 13:46:30;;;;;;;1.13;1.13;;;;;;;;;;5115315;28;20549;-72
2023/12/21 13:48:56;;;;;;;1.17;1.17;;;;;;;;;;5117029;28;20930;-72
2023/12/21 13:51:22;;;;;;;0.40;0.40;;;;;;;;;;5116608;28;20467;-70
2023/12/21 13:53:48;;;;;;;4.03;0.80;;;;;;;;;;5117017;28;20495;-72
2023/12/21 13:56:14;;;;;;;1.00;1.00;;;;;;;;;;5117043;28;20412;-72
2023/12/21 13:58:40;;;;;;;1.20;1.20;;;;;;;;;;5116681;28;20418;-72
2023/12/21 14:01:06;;;;;;;0.63;0.63;;;;;;;;;;5116506;28;20412;-71
2023/12/21 14:03:32;;;;;;;2.53;0.50;;;;;;;;;;5116513;28;20403;-72
2023/12/21 14:05:59;;;;;;;1.93;1.90;;;;;;;;;;5116782;28;20412;-72
2023/12/21 14:08:25;;;;;;;0.70;0.70;;;;;;;;;;5116563;28;20474;-71
2023/12/21 14:10:51;;;;;;;0.67;0.60;;;;;;;;;;5116523;28;20965;-71
2023/12/21 14:13:17;;;;;;;0.40;0.40;;;;;;;;;;5116332;28;20408;-71
2023/12/21 14:15:43;;;;;;;2.33;0.63;;;;;;;;;;5116609;28;20422;-72
2023/12/21 14:18:09;;;;;;;0.80;0.80;;;;;;;;;;5116806;28;20420;-72
2023/12/21 14:20:35;;;;;;;0.40;0.40;;;;;;;;;;5116171;28;20423;-71
2023/12/21 14:23:00;;;;;;;0.60;0.60;;;;;;;;;;5115973;28;20506;-72
2023/12/21 14:25:26;;;;;;;0.30;0.30;;;;;;;;;;5116521;28;20427;-71
2023/12/21 14:27:52;;;;;;;0.53;0.53;;;;;;;;;;5115830;28;20412;-71
2023/12/21 14:30:19;;;;;;;0.30;0.30;;;;;;;;;;5116295;28;20419;-72
2023/12/21 14:32:45;;;;;;;0.40;0.40;;;;;;;;;;5116547;28;20954;-72
2023/12/21 14:35:11;;;;;;;0.67;0.40;;;;;;;;;;5115995;28;20416;-72
2023/12/21 14:37:37;;;;;;;0.30;0.30;;;;;;;;;;5116126;28;20510;-72